< < Back
Terminal Aerodrome Forecast


Current Version              Previous Versions:   1  2  3  4  5  6  7  8  9  

Terminal Aerodrome Forecast

122
FTUS42 KGSP 282137 AAA
TAFHKY
TAF AMD
KHKY 282137Z 2822/0118 06007KT P6SM SCT120
     FM010400 07005KT P6SM BKN021
     FM010700 05004KT P6SM BKN008
     FM011400 03003KT P6SM -FZRA OVC008
     FM011500 02003KT P6SM -RA OVC003=

Latest METAR

159
SAUS70 KWBC 010300 RRP
MTRHKY
METAR KHKY 010253Z AUTO 09003KT 10SM CLR 02/M07 A3065 RMK AO2 SLP378
T00171072 51014


USA.gov is the U.S. government's official web portal to all federal, state and local government web resources and services.